sensor_id;sensor_type;location;lat;lon;timestamp;temperature;humidity
75683;HTU21D;64295;44.772;39.872;2023-03-17T00:01:37;11.27;77.31
75683;HTU21D;64295;44.772;39.872;2023-03-17T00:04:02;11.24;77.43
75683;HTU21D;64295;44.772;39.872;2023-03-17T00:06:30;11.25;77.37
75683;HTU21D;64295;44.772;39.872;2023-03-17T00:08:58;11.25;77.23
75683;HTU21D;64295;44.772;39.872;2023-03-17T00:11:26;11.24;77.54
75683;HTU21D;64295;44.772;39.872;2023-03-17T00:13:52;11.18;77.69
75683;HTU21D;64295;44.772;39.872;2023-03-17T00:16:23;11.14;77.95
75683;HTU21D;64295;44.772;39.872;2023-03-17T00:18:51;11.07;78.16
75683;HTU21D;64295;44.772;39.872;2023-03-17T00:21:30;11.05;78.31
75683;HTU21D;64295;44.772;39.872;2023-03-17T00:23:56;11.03;78.23
75683;HTU21D;64295;44.772;39.872;2023-03-17T00:26:23;11.02;78.27
75683;HTU21D;64295;44.772;39.872;2023-03-17T00:28:52;10.98;78.37
75683;HTU21D;64295;44.772;39.872;2023-03-17T00:31:22;10.95;78.46
75683;HTU21D;64295;44.772;39.872;2023-03-17T00:33:52;10.96;78.36
75683;HTU21D;64295;44.772;39.872;2023-03-17T00:36:25;10.96;78.37
75683;HTU21D;64295;44.772;39.872;2023-03-17T00:38:54;10.97;78.24
75683;HTU21D;64295;44.772;39.872;2023-03-17T00:41:20;10.98;78.22
75683;HTU21D;64295;44.772;39.872;2023-03-17T00:43:47;10.95;78.27
75683;HTU21D;64295;44.772;39.872;2023-03-17T00:46:27;10.97;78.34
75683;HTU21D;64295;44.772;39.872;2023-03-17T00:48:53;10.93;78.39
75683;HTU21D;64295;44.772;39.872;2023-03-17T00:51:20;10.88;78.42
75683;HTU21D;64295;44.772;39.872;2023-03-17T00:53:46;10.94;78.21
75683;HTU21D;64295;44.772;39.872;2023-03-17T00:56:17;10.99;78.03
75683;HTU21D;64295;44.772;39.872;2023-03-17T00:58:44;11.08;77.75
75683;HTU21D;64295;44.772;39.872;2023-03-17T01:01:11;11.05;77.72
75683;HTU21D;64295;44.772;39.872;2023-03-17T01:03:37;11.00;77.91
75683;HTU21D;64295;44.772;39.872;2023-03-17T01:06:05;10.98;78.05
75683;HTU21D;64295;44.772;39.872;2023-03-17T01:08:32;10.97;78.10
75683;HTU21D;64295;44.772;39.872;2023-03-17T01:10:58;10.92;78.21
75683;HTU21D;64295;44.772;39.872;2023-03-17T01:13:24;10.92;78.24
75683;HTU21D;64295;44.772;39.872;2023-03-17T01:15:51;10.88;78.29
75683;HTU21D;64295;44.772;39.872;2023-03-17T01:18:19;10.90;78.29
75683;HTU21D;64295;44.772;39.872;2023-03-17T01:20:46;10.92;78.18
75683;HTU21D;64295;44.772;39.872;2023-03-17T01:23:13;10.93;78.11
75683;HTU21D;64295;44.772;39.872;2023-03-17T01:25:40;10.89;78.27
75683;HTU21D;64295;44.772;39.872;2023-03-17T01:28:13;10.89;78.35
75683;HTU21D;64295;44.772;39.872;2023-03-17T01:30:39;10.93;78.13
75683;HTU21D;64295;44.772;39.872;2023-03-17T01:33:07;11.00;77.91
75683;HTU21D;64295;44.772;39.872;2023-03-17T01:35:33;11.01;77.81
75683;HTU21D;64295;44.772;39.872;2023-03-17T01:38:00;11.03;77.79
75683;HTU21D;64295;44.772;39.872;2023-03-17T01:40:29;11.07;77.66
75683;HTU21D;64295;44.772;39.872;2023-03-17T01:43:12;11.09;77.62
75683;HTU21D;64295;44.772;39.872;2023-03-17T01:48:39;11.07;77.59
75683;HTU21D;64295;44.772;39.872;2023-03-17T01:51:08;11.03;77.72
75683;HTU21D;64295;44.772;39.872;2023-03-17T01:53:37;10.93;77.96
75683;HTU21D;64295;44.772;39.872;2023-03-17T01:56:05;10.93;77.99
75683;HTU21D;64295;44.772;39.872;2023-03-17T01:58:31;10.94;77.89
75683;HTU21D;64295;44.772;39.872;2023-03-17T02:00:58;11.00;77.70
75683;HTU21D;64295;44.772;39.872;2023-03-17T02:03:24;11.00;77.63
75683;HTU21D;64295;44.772;39.872;2023-03-17T02:05:51;10.90;77.90
75683;HTU21D;64295;44.772;39.872;2023-03-17T02:08:17;10.86;78.01
75683;HTU21D;64295;44.772;39.872;2023-03-17T02:10:44;10.81;78.12
75683;HTU21D;64295;44.772;39.872;2023-03-17T02:13:13;10.83;78.03
75683;HTU21D;64295;44.772;39.872;2023-03-17T02:15:42;10.89;77.82
75683;HTU21D;64295;44.772;39.872;2023-03-17T02:18:10;10.94;77.65
75683;HTU21D;64295;44.772;39.872;2023-03-17T02:23:04;11.01;77.40
75683;HTU21D;64295;44.772;39.872;2023-03-17T02:25:33;11.03;77.31
75683;HTU21D;64295;44.772;39.872;2023-03-17T02:28:09;11.03;77.31
75683;HTU21D;64295;44.772;39.872;2023-03-17T02:30:40;11.05;77.24
75683;HTU21D;64295;44.772;39.872;2023-03-17T02:33:06;11.07;77.21
75683;HTU21D;64295;44.772;39.872;2023-03-17T02:35:32;11.07;77.18
75683;HTU21D;64295;44.772;39.872;2023-03-17T02:37:58;11.09;77.19
75683;HTU21D;64295;44.772;39.872;2023-03-17T02:40:23;11.05;77.27
75683;HTU21D;64295;44.772;39.872;2023-03-17T02:42:50;11.05;77.29
75683;HTU21D;64295;44.772;39.872;2023-03-17T02:45:16;11.02;77.30
75683;HTU21D;64295;44.772;39.872;2023-03-17T02:47:44;11.00;77.34
75683;HTU21D;64295;44.772;39.872;2023-03-17T02:50:18;10.98;77.44
75683;HTU21D;64295;44.772;39.872;2023-03-17T02:52:45;10.97;77.40
75683;HTU21D;64295;44.772;39.872;2023-03-17T02:55:11;10.93;77.53
75683;HTU21D;64295;44.772;39.872;2023-03-17T02:57:37;10.90;77.59
75683;HTU21D;64295;44.772;39.872;2023-03-17T03:00:03;10.94;77.49
75683;HTU21D;64295;44.772;39.872;2023-03-17T03:02:29;10.98;77.38
75683;HTU21D;64295;44.772;39.872;2023-03-17T03:04:55;11.04;77.21
75683;HTU21D;64295;44.772;39.872;2023-03-17T03:07:21;11.05;77.16
75683;HTU21D;64295;44.772;39.872;2023-03-17T03:09:47;11.04;77.15
75683;HTU21D;64295;44.772;39.872;2023-03-17T03:12:13;11.01;77.21
75683;HTU21D;64295;44.772;39.872;2023-03-17T03:14:39;11.00;77.22
75683;HTU21D;64295;44.772;39.872;2023-03-17T03:17:05;10.99;77.29
75683;HTU21D;64295;44.772;39.872;2023-03-17T03:19:33;10.97;77.35
75683;HTU21D;64295;44.772;39.872;2023-03-17T03:21:59;10.96;77.36
75683;HTU21D;64295;44.772;39.872;2023-03-17T03:24:25;10.99;77.31
75683;HTU21D;64295;44.772;39.872;2023-03-17T03:26:52;10.98;77.29
75683;HTU21D;64295;44.772;39.872;2023-03-17T03:29:18;11.00;77.23
75683;HTU21D;64295;44.772;39.872;2023-03-17T03:31:44;11.03;77.19
75683;HTU21D;64295;44.772;39.872;2023-03-17T03:34:12;11.07;77.14
75683;HTU21D;64295;44.772;39.872;2023-03-17T03:36:38;11.05;77.18
75683;HTU21D;64295;44.772;39.872;2023-03-17T03:39:04;10.96;77.41
75683;HTU21D;64295;44.772;39.872;2023-03-17T03:41:32;10.93;77.51
75683;HTU21D;64295;44.772;39.872;2023-03-17T03:44:00;10.92;77.56
75683;HTU21D;64295;44.772;39.872;2023-03-17T03:46:26;10.89;77.55
75683;HTU21D;64295;44.772;39.872;2023-03-17T03:48:53;10.93;77.50
75683;HTU21D;64295;44.772;39.872;2023-03-17T03:51:23;10.87;77.63
75683;HTU21D;64295;44.772;39.872;2023-03-17T03:53:56;10.75;78.11
75683;HTU21D;64295;44.772;39.872;2023-03-17T03:56:28;10.62;78.37
75683;HTU21D;64295;44.772;39.872;2023-03-17T03:58:57;10.63;78.35
75683;HTU21D;64295;44.772;39.872;2023-03-17T04:01:23;10.68;78.18
75683;HTU21D;64295;44.772;39.872;2023-03-17T04:03:49;10.71;77.99
75683;HTU21D;64295;44.772;39.872;2023-03-17T04:06:15;10.78;77.89
75683;HTU21D;64295;44.772;39.872;2023-03-17T04:08:41;10.80;77.82
75683;HTU21D;64295;44.772;39.872;2023-03-17T04:11:07;10.81;77.72
75683;HTU21D;64295;44.772;39.872;2023-03-17T04:13:33;10.84;77.66
75683;HTU21D;64295;44.772;39.872;2023-03-17T04:15:59;10.84;77.66
75683;HTU21D;64295;44.772;39.872;2023-03-17T04:18:28;10.75;77.92
75683;HTU21D;64295;44.772;39.872;2023-03-17T04:20:56;10.73;78.00
75683;HTU21D;64295;44.772;39.872;2023-03-17T04:23:22;10.75;77.93
75683;HTU21D;64295;44.772;39.872;2023-03-17T04:25:52;10.67;78.20
75683;HTU21D;64295;44.772;39.872;2023-03-17T04:28:18;10.59;78.33
75683;HTU21D;64295;44.772;39.872;2023-03-17T04:30:46;10.56;78.37
75683;HTU21D;64295;44.772;39.872;2023-03-17T04:33:12;10.57;78.34
75683;HTU21D;64295;44.772;39.872;2023-03-17T04:35:38;10.58;78.30
75683;HTU21D;64295;44.772;39.872;2023-03-17T04:38:29;10.55;78.41
75683;HTU21D;64295;44.772;39.872;2023-03-17T04:40:55;10.48;78.70
75683;HTU21D;64295;44.772;39.872;2023-03-17T04:43:21;10.42;78.88
75683;HTU21D;64295;44.772;39.872;2023-03-17T04:45:47;10.39;78.94
75683;HTU21D;64295;44.772;39.872;2023-03-17T04:48:13;10.45;78.72
75683;HTU21D;64295;44.772;39.872;2023-03-17T04:50:39;10.53;78.47
75683;HTU21D;64295;44.772;39.872;2023-03-17T04:53:04;10.60;78.32
75683;HTU21D;64295;44.772;39.872;2023-03-17T04:55:32;10.68;78.17
75683;HTU21D;64295;44.772;39.872;2023-03-17T04:57:58;10.87;77.89
75683;HTU21D;64295;44.772;39.872;2023-03-17T05:00:29;10.95;77.65
75683;HTU21D;64295;44.772;39.872;2023-03-17T05:02:55;10.86;77.75
75683;HTU21D;64295;44.772;39.872;2023-03-17T05:05:21;10.81;78.01
75683;HTU21D;64295;44.772;39.872;2023-03-17T05:07:47;10.70;78.31
75683;HTU21D;64295;44.772;39.872;2023-03-17T05:10:13;10.64;78.55
75683;HTU21D;64295;44.772;39.872;2023-03-17T05:12:39;10.57;78.72
75683;HTU21D;64295;44.772;39.872;2023-03-17T05:15:05;10.52;78.97
75683;HTU21D;64295;44.772;39.872;2023-03-17T05:17:31;10.50;79.04
75683;HTU21D;64295;44.772;39.872;2023-03-17T05:19:57;10.54;78.85
75683;HTU21D;64295;44.772;39.872;2023-03-17T05:22:23;10.64;78.56
75683;HTU21D;64295;44.772;39.872;2023-03-17T05:24:49;10.77;78.49
75683;HTU21D;64295;44.772;39.872;2023-03-17T05:27:15;10.85;78.24
75683;HTU21D;64295;44.772;39.872;2023-03-17T05:29:40;10.96;77.99
75683;HTU21D;64295;44.772;39.872;2023-03-17T05:32:06;11.03;77.79
75683;HTU21D;64295;44.772;39.872;2023-03-17T05:34:32;11.11;77.67
75683;HTU21D;64295;44.772;39.872;2023-03-17T05:36:58;11.10;77.72
75683;HTU21D;64295;44.772;39.872;2023-03-17T05:39:24;10.99;78.01
75683;HTU21D;64295;44.772;39.872;2023-03-17T05:41:50;10.94;78.24
75683;HTU21D;64295;44.772;39.872;2023-03-17T05:44:16;10.96;78.24
75683;HTU21D;64295;44.772;39.872;2023-03-17T05:46:41;10.95;78.23
75683;HTU21D;64295;44.772;39.872;2023-03-17T05:49:07;11.02;78.09
75683;HTU21D;64295;44.772;39.872;2023-03-17T05:51:33;11.05;77.99
75683;HTU21D;64295;44.772;39.872;2023-03-17T05:53:59;11.05;77.97
75683;HTU21D;64295;44.772;39.872;2023-03-17T05:56:25;11.01;78.16
75683;HTU21D;64295;44.772;39.872;2023-03-17T05:59:01;10.95;78.34
75683;HTU21D;64295;44.772;39.872;2023-03-17T06:01:27;11.00;78.24
75683;HTU21D;64295;44.772;39.872;2023-03-17T06:03:53;11.10;77.98
75683;HTU21D;64295;44.772;39.872;2023-03-17T06:06:19;11.13;77.94
75683;HTU21D;64295;44.772;39.872;2023-03-17T06:08:45;11.20;77.78
75683;HTU21D;64295;44.772;39.872;2023-03-17T06:11:11;11.31;77.66
75683;HTU21D;64295;44.772;39.872;2023-03-17T06:13:37;11.40;77.50
75683;HTU21D;64295;44.772;39.872;2023-03-17T06:16:03;11.45;77.41
75683;HTU21D;64295;44.772;39.872;2023-03-17T06:18:29;11.52;77.31
75683;HTU21D;64295;44.772;39.872;2023-03-17T06:20:55;11.53;77.29
75683;HTU21D;64295;44.772;39.872;2023-03-17T06:23:21;11.55;77.33
75683;HTU21D;64295;44.772;39.872;2023-03-17T06:25:48;11.58;77.30
75683;HTU21D;64295;44.772;39.872;2023-03-17T06:28:14;11.48;77.48
75683;HTU21D;64295;44.772;39.872;2023-03-17T06:30:40;11.44;77.64
75683;HTU21D;64295;44.772;39.872;2023-03-17T06:33:06;11.49;77.56
75683;HTU21D;64295;44.772;39.872;2023-03-17T06:35:32;11.51;77.50
75683;HTU21D;64295;44.772;39.872;2023-03-17T06:37:58;11.44;77.69
75683;HTU21D;64295;44.772;39.872;2023-03-17T06:40:25;11.36;77.98
75683;HTU21D;64295;44.772;39.872;2023-03-17T06:42:51;11.29;78.11
75683;HTU21D;64295;44.772;39.872;2023-03-17T06:45:17;11.28;78.14
75683;HTU21D;64295;44.772;39.872;2023-03-17T06:47:43;11.38;77.98
75683;HTU21D;64295;44.772;39.872;2023-03-17T06:50:10;11.51;77.72
75683;HTU21D;64295;44.772;39.872;2023-03-17T06:52:37;11.63;77.49
75683;HTU21D;64295;44.772;39.872;2023-03-17T06:55:03;11.74;77.30
75683;HTU21D;64295;44.772;39.872;2023-03-17T06:57:30;11.84;77.12
75683;HTU21D;64295;44.772;39.872;2023-03-17T06:59:56;11.85;77.02
75683;HTU21D;64295;44.772;39.872;2023-03-17T07:02:21;11.86;77.09
75683;HTU21D;64295;44.772;39.872;2023-03-17T07:04:48;11.90;77.08
75683;HTU21D;64295;44.772;39.872;2023-03-17T07:07:15;11.97;77.02
75683;HTU21D;64295;44.772;39.872;2023-03-17T07:09:41;11.99;77.01
75683;HTU21D;64295;44.772;39.872;2023-03-17T07:12:07;12.02;77.01
75683;HTU21D;64295;44.772;39.872;2023-03-17T07:14:34;12.07;76.99
75683;HTU21D;64295;44.772;39.872;2023-03-17T07:17:05;12.10;76.91
75683;HTU21D;64295;44.772;39.872;2023-03-17T07:19:31;12.12;76.85
75683;HTU21D;64295;44.772;39.872;2023-03-17T07:21:58;12.12;76.88
75683;HTU21D;64295;44.772;39.872;2023-03-17T07:24:24;12.17;76.83
75683;HTU21D;64295;44.772;39.872;2023-03-17T07:26:50;12.22;76.75
75683;HTU21D;64295;44.772;39.872;2023-03-17T07:29:17;12.22;76.69
75683;HTU21D;64295;44.772;39.872;2023-03-17T07:31:43;12.22;76.71
75683;HTU21D;64295;44.772;39.872;2023-03-17T07:34:09;12.27;76.68
75683;HTU21D;64295;44.772;39.872;2023-03-17T07:36:36;12.33;76.60
75683;HTU21D;64295;44.772;39.872;2023-03-17T07:39:02;12.34;76.50
75683;HTU21D;64295;44.772;39.872;2023-03-17T07:41:29;12.26;76.61
75683;HTU21D;64295;44.772;39.872;2023-03-17T07:43:55;12.13;76.94
75683;HTU21D;64295;44.772;39.872;2023-03-17T07:46:22;12.08;77.06
75683;HTU21D;64295;44.772;39.872;2023-03-17T07:48:48;12.15;76.88
75683;HTU21D;64295;44.772;39.872;2023-03-17T07:51:15;12.22;76.70
75683;HTU21D;64295;44.772;39.872;2023-03-17T07:53:42;12.30;76.60
75683;HTU21D;64295;44.772;39.872;2023-03-17T07:56:09;12.36;76.51
75683;HTU21D;64295;44.772;39.872;2023-03-17T07:58:35;12.36;76.50
75683;HTU21D;64295;44.772;39.872;2023-03-17T08:01:01;12.37;76.55
75683;HTU21D;64295;44.772;39.872;2023-03-17T08:03:28;12.41;76.50
75683;HTU21D;64295;44.772;39.872;2023-03-17T08:05:55;12.40;76.50
75683;HTU21D;64295;44.772;39.872;2023-03-17T08:08:23;12.42;76.53
75683;HTU21D;64295;44.772;39.872;2023-03-17T08:10:50;12.48;76.41
75683;HTU21D;64295;44.772;39.872;2023-03-17T08:13:16;12.56;76.28
75683;HTU21D;64295;44.772;39.872;2023-03-17T08:15:42;12.57;76.21
75683;HTU21D;64295;44.772;39.872;2023-03-17T08:18:08;12.59;76.21
75683;HTU21D;64295;44.772;39.872;2023-03-17T08:20:35;12.62;76.17
75683;HTU21D;64295;44.772;39.872;2023-03-17T08:23:02;12.63;76.15
75683;HTU21D;64295;44.772;39.872;2023-03-17T08:25:28;12.64;76.15
75683;HTU21D;64295;44.772;39.872;2023-03-17T08:27:54;12.66;76.15
75683;HTU21D;64295;44.772;39.872;2023-03-17T08:30:20;12.69;76.13
75683;HTU21D;64295;44.772;39.872;2023-03-17T08:32:47;12.73;76.08
75683;HTU21D;64295;44.772;39.872;2023-03-17T08:35:15;12.76;75.97
75683;HTU21D;64295;44.772;39.872;2023-03-17T08:37:42;12.76;75.95
75683;HTU21D;64295;44.772;39.872;2023-03-17T08:40:14;12.76;75.92
75683;HTU21D;64295;44.772;39.872;2023-03-17T08:42:46;12.76;75.94
75683;HTU21D;64295;44.772;39.872;2023-03-17T08:45:15;12.79;75.84
75683;HTU21D;64295;44.772;39.872;2023-03-17T08:47:43;12.77;75.90
75683;HTU21D;64295;44.772;39.872;2023-03-17T08:50:13;12.84;75.83
75683;HTU21D;64295;44.772;39.872;2023-03-17T08:52:40;12.91;75.67
75683;HTU21D;64295;44.772;39.872;2023-03-17T08:55:06;12.94;75.53
75683;HTU21D;64295;44.772;39.872;2023-03-17T08:57:34;12.85;75.59
75683;HTU21D;64295;44.772;39.872;2023-03-17T09:00:00;12.86;75.65
75683;HTU21D;64295;44.772;39.872;2023-03-17T09:02:26;12.88;75.59
75683;HTU21D;64295;44.772;39.872;2023-03-17T09:04:53;12.87;75.60
75683;HTU21D;64295;44.772;39.872;2023-03-17T09:07:19;12.92;75.53
75683;HTU21D;64295;44.772;39.872;2023-03-17T09:09:46;13.02;75.32
75683;HTU21D;64295;44.772;39.872;2023-03-17T09:12:12;13.03;75.21
75683;HTU21D;64295;44.772;39.872;2023-03-17T09:14:38;13.03;75.18
75683;HTU21D;64295;44.772;39.872;2023-03-17T09:17:05;13.05;75.15
75683;HTU21D;64295;44.772;39.872;2023-03-17T09:19:32;13.05;75.18
75683;HTU21D;64295;44.772;39.872;2023-03-17T09:21:58;13.06;75.17
75683;HTU21D;64295;44.772;39.872;2023-03-17T09:24:25;13.09;75.11
75683;HTU21D;64295;44.772;39.872;2023-03-17T09:26:51;13.18;74.97
75683;HTU21D;64295;44.772;39.872;2023-03-17T09:29:17;13.26;74.82
75683;HTU21D;64295;44.772;39.872;2023-03-17T09:31:43;13.32;74.70
75683;HTU21D;64295;44.772;39.872;2023-03-17T09:34:09;13.34;74.70
75683;HTU21D;64295;44.772;39.872;2023-03-17T09:36:35;13.30;74.73
75683;HTU21D;64295;44.772;39.872;2023-03-17T09:39:02;13.34;74.77
75683;HTU21D;64295;44.772;39.872;2023-03-17T09:47:19;13.53;74.44
75683;HTU21D;64295;44.772;39.872;2023-03-17T09:49:58;13.58;74.29
75683;HTU21D;64295;44.772;39.872;2023-03-17T09:52:30;13.62;74.18
75683;HTU21D;64295;44.772;39.872;2023-03-17T09:55:00;13.60;74.15
75683;HTU21D;64295;44.772;39.872;2023-03-17T09:57:34;13.61;74.14
75683;HTU21D;64295;44.772;39.872;2023-03-17T10:00:12;13.54;74.08
75683;HTU21D;64295;44.772;39.872;2023-03-17T10:02:39;13.49;74.24
75683;HTU21D;64295;44.772;39.872;2023-03-17T10:18:40;13.54;73.86
75683;HTU21D;64295;44.772;39.872;2023-03-17T10:21:10;13.46;73.95
75683;HTU21D;64295;44.772;39.872;2023-03-17T10:23:37;13.50;74.03
75683;HTU21D;64295;44.772;39.872;2023-03-17T10:26:28;13.62;73.88
75683;HTU21D;64295;44.772;39.872;2023-03-17T10:29:00;13.75;73.70
75683;HTU21D;64295;44.772;39.872;2023-03-17T10:31:30;13.85;73.57
75683;HTU21D;64295;44.772;39.872;2023-03-17T10:34:30;13.95;73.50
75683;HTU21D;64295;44.772;39.872;2023-03-17T10:39:26;13.93;73.51
75683;HTU21D;64295;44.772;39.872;2023-03-17T10:41:57;13.96;73.53
75683;HTU21D;64295;44.772;39.872;2023-03-17T10:47:25;14.01;73.40
75683;HTU21D;64295;44.772;39.872;2023-03-17T10:49:55;14.07;73.17
75683;HTU21D;64295;44.772;39.872;2023-03-17T10:52:26;14.06;73.12
75683;HTU21D;64295;44.772;39.872;2023-03-17T10:54:52;14.07;72.96
75683;HTU21D;64295;44.772;39.872;2023-03-17T10:57:19;14.05;73.03
75683;HTU21D;64295;44.772;39.872;2023-03-17T10:59:53;14.04;73.02
75683;HTU21D;64295;44.772;39.872;2023-03-17T11:02:27;14.10;72.96
75683;HTU21D;64295;44.772;39.872;2023-03-17T11:05:06;14.11;72.83
75683;HTU21D;64295;44.772;39.872;2023-03-17T11:07:38;14.13;72.95
75683;HTU21D;64295;44.772;39.872;2023-03-17T11:10:20;14.19;72.86
75683;HTU21D;64295;44.772;39.872;2023-03-17T11:13:08;14.18;72.85
75683;HTU21D;64295;44.772;39.872;2023-03-17T11:15:40;14.20;72.80
75683;HTU21D;64295;44.772;39.872;2023-03-17T11:18:30;14.26;72.77
75683;HTU21D;64295;44.772;39.872;2023-03-17T11:21:20;14.33;72.61
75683;HTU21D;64295;44.772;39.872;2023-03-17T11:24:18;14.34;72.55
75683;HTU21D;64295;44.772;39.872;2023-03-17T11:37:56;14.24;72.24
75683;HTU21D;64295;44.772;39.872;2023-03-17T11:43:27;14.23;72.21
75683;HTU21D;64295;44.772;39.872;2023-03-17T11:46:10;14.28;72.08
75683;HTU21D;64295;44.772;39.872;2023-03-17T11:48:44;14.33;71.92
75683;HTU21D;64295;44.772;39.872;2023-03-17T11:51:20;14.38;71.95
75683;HTU21D;64295;44.772;39.872;2023-03-17T11:57:02;14.62;71.15
75683;HTU21D;64295;44.772;39.872;2023-03-17T12:04:59;14.65;71.03
75683;HTU21D;64295;44.772;39.872;2023-03-17T12:10:34;14.62;70.99
75683;HTU21D;64295;44.772;39.872;2023-03-17T12:15:40;14.99;70.66
75683;HTU21D;64295;44.772;39.872;2023-03-17T12:18:25;15.16;70.48
75683;HTU21D;64295;44.772;39.872;2023-03-17T12:21:08;15.33;70.27
75683;HTU21D;64295;44.772;39.872;2023-03-17T12:26:18;15.47;70.05
75683;HTU21D;64295;44.772;39.872;2023-03-17T12:29:08;15.46;70.23
75683;HTU21D;64295;44.772;39.872;2023-03-17T12:31:52;15.44;70.53
75683;HTU21D;64295;44.772;39.872;2023-03-17T12:34:28;15.48;70.48
75683;HTU21D;64295;44.772;39.872;2023-03-17T12:37:01;15.51;70.51
75683;HTU21D;64295;44.772;39.872;2023-03-17T12:39:33;15.57;70.35
75683;HTU21D;64295;44.772;39.872;2023-03-17T12:42:14;15.75;69.95
75683;HTU21D;64295;44.772;39.872;2023-03-17T12:44:59;15.92;69.49
75683;HTU21D;64295;44.772;39.872;2023-03-17T12:47:54;15.97;69.33
75683;HTU21D;64295;44.772;39.872;2023-03-17T12:53:24;16.11;69.01
75683;HTU21D;64295;44.772;39.872;2023-03-17T12:55:55;16.22;68.97
75683;HTU21D;64295;44.772;39.872;2023-03-17T12:58:38;16.39;68.58
75683;HTU21D;64295;44.772;39.872;2023-03-17T13:01:29;16.47;68.26
75683;HTU21D;64295;44.772;39.872;2023-03-17T13:06:53;16.66;68.03
75683;HTU21D;64295;44.772;39.872;2023-03-17T13:11:58;17.01;67.44
75683;HTU21D;64295;44.772;39.872;2023-03-17T13:14:43;17.07;67.33
75683;HTU21D;64295;44.772;39.872;2023-03-17T13:20:08;17.14;66.85
75683;HTU21D;64295;44.772;39.872;2023-03-17T13:36:04;16.61;67.66
75683;HTU21D;64295;44.772;39.872;2023-03-17T13:44:56;16.54;67.90
75683;HTU21D;64295;44.772;39.872;2023-03-17T13:47:31;16.48;67.82
75683;HTU21D;64295;44.772;39.872;2023-03-17T13:50:07;16.41;67.82
75683;HTU21D;64295;44.772;39.872;2023-03-17T13:52:47;16.33;68.01
75683;HTU21D;64295;44.772;39.872;2023-03-17T14:00:39;16.24;67.97
75683;HTU21D;64295;44.772;39.872;2023-03-17T14:03:28;16.19;67.95
75683;HTU21D;64295;44.772;39.872;2023-03-17T14:05:54;16.12;68.04
75683;HTU21D;64295;44.772;39.872;2023-03-17T14:08:30;16.07;68.00
75683;HTU21D;64295;44.772;39.872;2023-03-17T14:11:00;16.03;68.03
75683;HTU21D;64295;44.772;39.872;2023-03-17T14:13:30;15.95;68.07
75683;HTU21D;64295;44.772;39.872;2023-03-17T14:16:19;15.83;68.15
75683;HTU21D;64295;44.772;39.872;2023-03-17T14:18:51;15.76;68.26
75683;HTU21D;64295;44.772;39.872;2023-03-17T14:21:24;15.75;68.20
75683;HTU21D;64295;44.772;39.872;2023-03-17T14:23:55;15.71;68.20
75683;HTU21D;64295;44.772;39.872;2023-03-17T14:26:29;15.67;68.22
75683;HTU21D;64295;44.772;39.872;2023-03-17T14:29:00;15.66;68.23
75683;HTU21D;64295;44.772;39.872;2023-03-17T14:31:27;15.61;68.23
75683;HTU21D;64295;44.772;39.872;2023-03-17T14:33:58;15.61;68.20
75683;HTU21D;64295;44.772;39.872;2023-03-17T14:36:25;15.58;68.22
75683;HTU21D;64295;44.772;39.872;2023-03-17T14:38:54;15.60;68.16
75683;HTU21D;64295;44.772;39.872;2023-03-17T14:41:22;15.55;68.17
75683;HTU21D;64295;44.772;39.872;2023-03-17T14:43:49;15.51;68.18
75683;HTU21D;64295;44.772;39.872;2023-03-17T14:46:34;15.45;68.23
75683;HTU21D;64295;44.772;39.872;2023-03-17T14:49:08;15.40;68.32
75683;HTU21D;64295;44.772;39.872;2023-03-17T14:51:39;15.37;68.32
75683;HTU21D;64295;44.772;39.872;2023-03-17T14:54:33;15.32;68.36
75683;HTU21D;64295;44.772;39.872;2023-03-17T14:57:03;15.23;68.48
75683;HTU21D;64295;44.772;39.872;2023-03-17T14:59:36;15.14;68.58
75683;HTU21D;64295;44.772;39.872;2023-03-17T15:02:35;15.02;68.69
75683;HTU21D;64295;44.772;39.872;2023-03-17T15:05:10;14.97;68.76
75683;HTU21D;64295;44.772;39.872;2023-03-17T15:07:39;14.91;68.80
75683;HTU21D;64295;44.772;39.872;2023-03-17T15:10:39;14.82;68.84
75683;HTU21D;64295;44.772;39.872;2023-03-17T15:13:09;14.74;68.88
75683;HTU21D;64295;44.772;39.872;2023-03-17T15:15:37;14.64;69.07
75683;HTU21D;64295;44.772;39.872;2023-03-17T15:18:16;14.64;69.08
75683;HTU21D;64295;44.772;39.872;2023-03-17T15:20:44;14.54;69.17
75683;HTU21D;64295;44.772;39.872;2023-03-17T15:25:46;14.38;69.52
75683;HTU21D;64295;44.772;39.872;2023-03-17T15:28:16;14.30;69.53
75683;HTU21D;64295;44.772;39.872;2023-03-17T15:30:50;14.23;69.68
75683;HTU21D;64295;44.772;39.872;2023-03-17T15:35:53;14.09;69.84
75683;HTU21D;64295;44.772;39.872;2023-03-17T15:38:19;14.03;69.94
75683;HTU21D;64295;44.772;39.872;2023-03-17T15:40:46;13.99;69.97
75683;HTU21D;64295;44.772;39.872;2023-03-17T15:43:16;13.97;69.99
75683;HTU21D;64295;44.772;39.872;2023-03-17T15:45:43;13.91;70.09
75683;HTU21D;64295;44.772;39.872;2023-03-17T15:48:25;13.82;70.16
75683;HTU21D;64295;44.772;39.872;2023-03-17T15:50:53;13.81;70.17
75683;HTU21D;64295;44.772;39.872;2023-03-17T15:53:20;13.80;70.21
75683;HTU21D;64295;44.772;39.872;2023-03-17T15:55:46;13.77;70.19
75683;HTU21D;64295;44.772;39.872;2023-03-17T15:58:12;13.73;70.23
75683;HTU21D;64295;44.772;39.872;2023-03-17T16:00:38;13.73;70.22
75683;HTU21D;64295;44.772;39.872;2023-03-17T16:03:19;13.68;70.26
75683;HTU21D;64295;44.772;39.872;2023-03-17T16:05:46;13.66;70.25
75683;HTU21D;64295;44.772;39.872;2023-03-17T16:08:13;13.63;70.29
75683;HTU21D;64295;44.772;39.872;2023-03-17T16:10:40;13.60;70.31
75683;HTU21D;64295;44.772;39.872;2023-03-17T16:13:06;13.54;70.39
75683;HTU21D;64295;44.772;39.872;2023-03-17T16:15:36;13.51;70.53
75683;HTU21D;64295;44.772;39.872;2023-03-17T16:18:05;13.49;70.50
75683;HTU21D;64295;44.772;39.872;2023-03-17T16:20:39;13.49;70.46
75683;HTU21D;64295;44.772;39.872;2023-03-17T16:23:30;13.41;70.55
75683;HTU21D;64295;44.772;39.872;2023-03-17T16:25:54;13.40;70.58
75683;HTU21D;64295;44.772;39.872;2023-03-17T16:28:24;13.37;70.60
75683;HTU21D;64295;44.772;39.872;2023-03-17T16:30:51;13.33;70.65
75683;HTU21D;64295;44.772;39.872;2023-03-17T16:33:24;13.31;70.69
75683;HTU21D;64295;44.772;39.872;2023-03-17T16:35:51;13.24;70.72
75683;HTU21D;64295;44.772;39.872;2023-03-17T16:38:23;13.22;70.77
75683;HTU21D;64295;44.772;39.872;2023-03-17T16:40:51;13.19;70.79
75683;HTU21D;64295;44.772;39.872;2023-03-17T16:43:29;13.16;70.88
75683;HTU21D;64295;44.772;39.872;2023-03-17T16:46:01;13.12;70.92
75683;HTU21D;64295;44.772;39.872;2023-03-17T16:48:28;13.10;70.94
75683;HTU21D;64295;44.772;39.872;2023-03-17T16:50:54;13.11;70.95
75683;HTU21D;64295;44.772;39.872;2023-03-17T16:53:21;13.10;70.94
75683;HTU21D;64295;44.772;39.872;2023-03-17T16:55:50;13.10;70.96
75683;HTU21D;64295;44.772;39.872;2023-03-17T17:00:42;13.07;70.82
75683;HTU21D;64295;44.772;39.872;2023-03-17T17:03:08;13.05;70.87